Time;durP1;ratioP1;P1;durP2;ratioP2;P2;SDS_P1;SDS_P2;PMS_P1;PMS_P2;Temp;Humidity;BMP_temperature;BMP_pressure;BME280_temperature;BME280_humidity;BME280_pressure;Samples;Min_cycle;Max_cycle;Signal;HPM_P1;HPM_P2
2023/07/20 00:03:10;;;;;;;19.05;10.88;;;;;;;19.03;100.00;97288.94;10282389;28;20458;-47
2023/07/20 00:08:09;;;;;;;13.50;9.40;;;;;;;19.15;100.00;97292.84;10283408;28;20124;-47
2023/07/20 00:13:09;;;;;;;17.95;9.55;;;;;;;19.23;100.00;97301.28;10283729;28;20656;-48
2023/07/20 00:18:08;;;;;;;17.73;11.55;;;;;;;19.28;100.00;97279.19;10281647;28;20157;-47
2023/07/20 00:23:07;;;;;;;20.95;12.38;;;;;;;19.40;100.00;97249.69;10283116;28;20022;-50
2023/07/20 00:28:06;;;;;;;22.73;12.35;;;;;;;19.41;100.00;97215.38;10282772;28;20680;-47
2023/07/20 00:33:05;;;;;;;21.15;13.77;;;;;;;19.41;100.00;97204.88;10282219;28;20049;-50
2023/07/20 00:38:04;;;;;;;26.75;12.27;;;;;;;19.40;100.00;97203.16;10282843;28;20040;-50
2023/07/20 00:43:03;;;;;;;22.50;13.95;;;;;;;19.39;100.00;97158.50;10287069;28;20069;-47
2023/07/20 00:48:04;;;;;;;19.90;11.95;;;;;;;19.40;100.00;97170.75;10283818;28;20080;-50
2023/07/20 00:53:05;;;;;;;14.35;10.80;;;;;;;19.39;100.00;97171.66;10280759;28;20088;-47
2023/07/20 00:58:04;;;;;;;16.75;10.23;;;;;;;19.28;100.00;97187.94;10283029;28;20147;-48
2023/07/20 01:03:03;;;;;;;17.52;11.13;;;;;;;19.17;100.00;97179.69;10278951;28;20141;-47
2023/07/20 01:08:46;;;;;;;17.08;12.15;;;;;;;19.23;100.00;97195.19;10281256;28;20069;-48
2023/07/20 01:13:45;;;;;;;18.73;12.40;;;;;;;19.19;100.00;97202.34;10290658;28;20125;-48
2023/07/20 01:18:44;;;;;;;18.75;12.73;;;;;;;19.20;100.00;97205.84;10281563;28;20129;-49
2023/07/20 01:23:59;;;;;;;23.48;11.07;;;;;;;19.17;100.00;97213.88;10280759;28;20040;-47
2023/07/20 01:29:33;;;;;;;20.88;11.45;;;;;;;19.08;100.00;97219.53;10279125;28;20427;-50
2023/07/20 01:34:35;;;;;;;22.08;12.05;;;;;;;18.90;100.00;97190.50;10279993;28;20085;-50
2023/07/20 01:39:35;;;;;;;21.65;13.27;;;;;;;19.02;100.00;97211.00;10280413;28;20156;-49
2023/07/20 01:44:37;;;;;;;19.90;12.45;;;;;;;19.06;100.00;97213.47;10278550;28;20100;-51
2023/07/20 01:49:36;;;;;;;21.90;13.07;;;;;;;19.08;100.00;97214.28;10280347;28;20087;-50
2023/07/20 01:54:34;;;;;;;25.08;13.73;;;;;;;19.12;100.00;97203.56;10279226;28;20396;-50
2023/07/20 01:59:33;;;;;;;24.50;14.48;;;;;;;19.15;100.00;97199.94;10281111;28;20026;-47
2023/07/20 02:04:32;;;;;;;27.60;14.40;;;;;;;19.12;100.00;97203.56;10277931;28;20036;-48
2023/07/20 02:09:31;;;;;;;22.67;12.95;;;;;;;19.20;100.00;97205.84;10280880;28;20538;-48
2023/07/20 02:14:30;;;;;;;17.00;11.23;;;;;;;19.20;100.00;97188.28;10284212;28;20434;-50
2023/07/20 02:19:30;;;;;;;19.90;11.85;;;;;;;19.02;100.00;97161.03;10289196;28;20030;-46
2023/07/20 02:24:29;;;;;;;20.98;11.85;;;;;;;19.13;100.00;97183.38;10285826;28;20105;-48
2023/07/20 02:29:28;;;;;;;21.35;12.07;;;;;;;19.06;100.00;97181.94;10287006;28;20072;-50
2023/07/20 02:34:27;;;;;;;16.48;10.25;;;;;;;18.93;100.00;97198.25;10286506;28;20133;-48
2023/07/20 02:39:29;;;;;;;22.75;12.27;;;;;;;18.80;100.00;97202.31;10288076;28;20077;-50
2023/07/20 02:44:28;;;;;;;28.27;13.18;;;;;;;18.72;100.00;97197.41;10284670;28;20445;-50
2023/07/20 02:49:27;;;;;;;23.55;14.18;;;;;;;18.48;100.00;97165.09;10286913;28;20022;-51
2023/07/20 02:54:26;;;;;;;24.45;14.20;;;;;;;18.67;100.00;97198.50;10285300;28;20128;-49
2023/07/20 02:59:25;;;;;;;23.08;14.90;;;;;;;18.65;100.00;97208.22;10286619;28;20049;-49
2023/07/20 03:04:27;;;;;;;26.00;15.82;;;;;;;18.65;100.00;97202.97;10285290;28;20032;-48
2023/07/20 03:09:26;;;;;;;25.52;15.77;;;;;;;18.69;100.00;97215.94;10284223;28;20080;-48
2023/07/20 03:14:25;;;;;;;26.30;15.48;;;;;;;18.71;100.00;97213.22;10286692;28;20069;-49
2023/07/20 03:19:24;;;;;;;30.67;14.65;;;;;;;18.79;100.00;97211.13;10284804;28;20022;-48
2023/07/20 03:24:23;;;;;;;26.17;15.40;;;;;;;18.81;100.00;97214.56;10282789;28;20030;-49
2023/07/20 03:29:22;;;;;;;26.00;13.93;;;;;;;18.75;100.00;97209.56;10289667;28;20133;-48
2023/07/20 03:34:21;;;;;;;23.10;13.55;;;;;;;18.73;100.00;97206.97;10285331;28;20022;-50
2023/07/20 03:39:22;;;;;;;22.75;12.82;;;;;;;18.78;100.00;97210.28;10286663;28;20052;-50
2023/07/20 03:44:21;;;;;;;20.67;13.02;;;;;;;18.66;100.00;97204.66;10281631;28;20109;-48
2023/07/20 03:49:20;;;;;;;24.10;15.43;;;;;;;18.60;100.00;97203.16;10285362;28;20026;-49
2023/07/20 03:54:19;;;;;;;24.98;15.20;;;;;;;18.61;100.00;97203.06;10283043;28;20071;-51
2023/07/20 03:59:18;;;;;;;26.45;16.50;;;;;;;18.52;100.00;97192.09;10285050;28;20044;-49
2023/07/20 04:04:17;;;;;;;28.15;17.13;;;;;;;18.43;100.00;97213.50;10282178;28;20026;-49
2023/07/20 04:09:16;;;;;;;24.48;16.05;;;;;;;18.58;100.00;97221.59;10283413;28;20165;-49
2023/07/20 04:14:15;;;;;;;26.48;14.57;;;;;;;18.75;100.00;97231.44;10283238;28;20021;-51
2023/07/20 04:19:14;;;;;;;46.35;17.20;;;;;;;18.87;100.00;97224.78;10283884;28;20129;-49
2023/07/20 04:24:13;;;;;;;32.08;15.80;;;;;;;19.01;100.00;97221.56;10280595;28;20029;-50
2023/07/20 04:29:12;;;;;;;30.50;15.57;;;;;;;19.18;100.00;97211.19;10283353;28;20566;-50
2023/07/20 04:34:11;;;;;;;27.08;15.20;;;;;;;19.21;100.00;97197.03;10281262;28;20168;-49
2023/07/20 04:39:10;;;;;;;25.77;14.60;;;;;;;19.37;100.00;97200.69;10283776;28;20044;-50
2023/07/20 04:44:09;;;;;;;31.70;15.15;;;;;;;19.61;100.00;97195.25;10282031;28;20495;-51
2023/07/20 04:49:08;;;;;;;44.30;16.55;;;;;;;19.70;100.00;97189.56;10280824;28;20026;-51
2023/07/20 04:54:07;;;;;;;23.88;12.65;;;;;;;19.80;100.00;97184.72;10282183;28;20472;-51
2023/07/20 04:59:07;;;;;;;43.67;15.68;;;;;;;19.78;100.00;97179.53;10279624;28;20046;-52
2023/07/20 05:04:06;;;;;;;22.42;11.82;;;;;;;19.88;100.00;97193.09;10281375;28;20030;-52
2023/07/20 05:09:07;;;;;;;15.52;10.88;;;;;;;19.86;100.00;97156.31;10282016;28;20109;-53
2023/07/20 05:14:06;;;;;;;19.15;11.30;;;;;;;20.08;100.00;97171.09;10279791;28;20073;-52
2023/07/20 05:19:05;;;;;;;21.83;11.95;;;;;;;20.30;100.00;97178.78;10282140;28;20049;-53
2023/07/20 05:24:05;;;;;;;24.00;12.48;;;;;;;20.40;100.00;97179.19;10280347;28;20045;-53
2023/07/20 05:29:04;;;;;;;31.10;11.80;;;;;;;20.46;100.00;97179.75;10281519;28;20084;-55
2023/07/20 05:34:03;;;;;;;22.42;11.73;;;;;;;20.46;100.00;97153.41;10280896;28;20463;-53
2023/07/20 05:39:02;;;;;;;23.27;11.60;;;;;;;20.60;100.00;97160.59;10281298;28;20034;-52
2023/07/20 05:44:00;;;;;;;21.50;11.73;;;;;;;20.68;100.00;97147.91;10283294;28;20087;-53
2023/07/20 05:49:00;;;;;;;25.65;11.95;;;;;;;20.62;100.00;97169.28;10283411;28;20045;-53
2023/07/20 05:53:59;;;;;;;25.20;12.25;;;;;;;20.51;100.00;97179.53;10278335;28;20084;-53
2023/07/20 05:58:58;;;;;;;21.30;12.35;;;;;;;20.61;100.00;97183.44;10282090;28;20018;-53
2023/07/20 06:03:57;;;;;;;20.80;11.20;;;;;;;20.49;100.00;97170.84;10279810;28;20109;-50
2023/07/20 06:08:56;;;;;;;21.67;11.80;;;;;;;20.85;100.00;97189.22;10281402;28;20136;-52
2023/07/20 06:13:55;;;;;;;17.48;11.63;;;;;;;21.14;100.00;97192.13;10285554;28;20038;-49
2023/07/20 06:18:55;;;;;;;19.95;10.95;;;;;;;21.36;100.00;97186.59;10282396;28;20070;-49
2023/07/20 06:23:54;;;;;;;20.75;10.80;;;;;;;21.33;100.00;97129.53;10283416;28;20065;-51
2023/07/20 06:28:53;;;;;;;26.25;10.05;;;;;;;21.83;100.00;97164.66;10285492;28;20061;-50
2023/07/20 06:33:52;;;;;;;17.73;9.05;;;;;;;22.02;100.00;97174.25;10288701;28;20052;-49
2023/07/20 06:38:51;;;;;;;21.73;9.00;;;;;;;22.31;100.00;97173.41;10284044;28;20036;-49
2023/07/20 06:43:52;;;;;;;35.22;9.75;;;;;;;22.47;100.00;97160.16;10282579;28;20489;-51
2023/07/20 06:48:51;;;;;;;19.70;9.50;;;;;;;22.65;100.00;97171.44;10280892;28;20168;-51
2023/07/20 06:53:50;;;;;;;15.98;8.15;;;;;;;22.69;100.00;97172.94;10282366;28;20028;-51
2023/07/20 06:58:49;;;;;;;16.50;8.48;;;;;;;23.01;100.00;97176.34;10283441;28;20022;-49
2023/07/20 07:03:48;;;;;;;23.52;8.80;;;;;;;23.26;96.83;97180.16;10292106;28;20076;-51
2023/07/20 07:08:47;;;;;;;20.85;9.57;;;;;;;23.61;93.83;97178.00;10288943;28;20117;-50
2023/07/20 07:13:46;;;;;;;17.13;8.10;;;;;;;23.82;91.82;97178.44;10290345;28;20112;-51
2023/07/20 07:18:46;;;;;;;18.95;8.88;;;;;;;24.22;91.57;97189.16;10290201;28;20070;-49
2023/07/20 07:23:46;;;;;;;18.02;8.27;;;;;;;24.69;91.54;97197.56;10287964;28;20061;-53
2023/07/20 07:28:45;;;;;;;18.50;8.25;;;;;;;25.32;91.03;97207.44;10284534;28;20054;-52
2023/07/20 07:33:44;;;;;;;17.52;8.07;;;;;;;25.85;79.90;97214.41;10286745;28;20080;-52
2023/07/20 07:38:43;;;;;;;14.82;7.55;;;;;;;26.35;77.40;97218.75;10284110;28;20038;-52
2023/07/20 07:43:42;;;;;;;16.45;7.75;;;;;;;26.55;75.67;97192.47;10288035;28;20022;-52
2023/07/20 07:48:42;;;;;;;19.67;8.68;;;;;;;26.60;72.30;97234.69;10285554;28;20113;-49
2023/07/20 07:53:42;;;;;;;14.90;8.10;;;;;;;26.68;75.77;97227.00;10285612;28;20117;-51
2023/07/20 07:58:41;;;;;;;13.90;8.98;;;;;;;26.88;68.76;97233.50;10284216;28;20483;-52
2023/07/20 08:03:40;;;;;;;16.13;8.30;;;;;;;27.03;71.15;97250.16;10285461;28;20065;-52
2023/07/20 08:08:39;;;;;;;14.98;8.40;;;;;;;27.15;70.30;97283.84;10286428;28;20073;-51
2023/07/20 08:13:38;;;;;;;16.65;8.00;;;;;;;27.27;70.02;97269.56;10283400;28;20037;-51
2023/07/20 08:18:37;;;;;;;13.88;6.78;;;;;;;27.37;64.02;97265.22;10288709;28;20037;-50
2023/07/20 08:23:36;;;;;;;9.50;3.35;;;;;;;26.82;58.32;97285.38;10284440;28;20034;-51
2023/07/20 08:28:35;;;;;;;6.07;3.63;;;;;;;26.31;57.37;97320.16;10284378;28;20485;-53
2023/07/20 08:33:34;;;;;;;9.15;2.90;;;;;;;26.36;57.88;97310.03;10281490;28;20062;-50
2023/07/20 08:38:33;;;;;;;5.85;3.03;;;;;;;26.22;55.78;97305.69;10282461;28;20081;-50
2023/07/20 08:43:33;;;;;;;5.80;2.95;;;;;;;26.37;57.29;97303.78;10282078;28;20029;-52
2023/07/20 08:48:33;;;;;;;6.13;2.28;;;;;;;26.28;52.89;97309.75;10282022;28;20069;-52
2023/07/20 08:53:33;;;;;;;5.72;2.40;;;;;;;26.48;53.95;97298.50;10282304;28;20128;-51
2023/07/20 08:58:34;;;;;;;6.57;2.00;;;;;;;26.32;49.92;97316.53;10277960;28;20128;-52
2023/07/20 09:03:34;;;;;;;8.27;2.08;;;;;;;26.25;48.98;97305.47;10281101;28;20129;-49
2023/07/20 09:08:33;;;;;;;5.07;2.05;;;;;;;26.15;50.01;97299.94;10284264;28;20141;-53
2023/07/20 09:13:33;;;;;;;6.07;2.53;;;;;;;26.33;50.85;97291.66;10281257;28;20153;-51
2023/07/20 09:18:34;;;;;;;4.43;2.05;;;;;;;26.39;50.12;97253.94;10284304;28;20476;-53
2023/07/20 09:23:34;;;;;;;5.15;2.30;;;;;;;26.82;49.81;97256.09;10281563;28;20140;-52
2023/07/20 09:28:42;;;;;;;6.25;2.38;;;;;;;27.03;48.74;97244.81;10283158;28;20546;-52
2023/07/20 09:33:41;;;;;;;6.50;2.45;;;;;;;27.12;47.91;97263.63;10280379;28;20129;-52
2023/07/20 09:38:43;;;;;;;3.80;2.20;;;;;;;27.25;47.49;97246.69;10280300;28;20073;-50
2023/07/20 09:43:42;;;;;;;3.60;2.17;;;;;;;27.52;45.90;97257.06;10280759;28;20120;-54
2023/07/20 09:48:51;;;;;;;4.20;2.17;;;;;;;27.89;46.92;97236.31;10274891;28;20253;-51
2023/07/20 09:53:53;;;;;;;6.60;2.00;;;;;;;28.37;46.83;97224.53;10295445;28;20128;-51
2023/07/20 09:58:52;;;;;;;7.13;2.63;;;;;;;28.70;45.56;97236.09;10283477;28;20124;-52
2023/07/20 10:03:53;;;;;;;5.53;2.55;;;;;;;29.21;43.48;97230.00;10285156;28;20456;-52
2023/07/20 10:08:55;;;;;;;5.28;2.50;;;;;;;29.23;41.85;97198.66;10285599;28;20065;-50
2023/07/20 10:13:58;;;;;;;4.30;2.20;;;;;;;29.53;41.22;97188.97;10283604;28;20474;-52
2023/07/20 10:19:03;;;;;;;6.80;2.40;;;;;;;30.18;40.78;97182.31;10285960;28;20065;-52
2023/07/20 10:24:03;;;;;;;5.43;2.17;;;;;;;30.59;39.15;97175.06;10284521;28;20098;-52
2023/07/20 10:29:03;;;;;;;5.90;2.30;;;;;;;31.13;38.75;97173.59;10283616;28;20673;-52
2023/07/20 10:34:03;;;;;;;5.10;2.22;;;;;;;31.43;37.01;97149.38;10284980;28;20156;-53
2023/07/20 10:39:02;;;;;;;8.65;2.75;;;;;;;31.80;37.49;97141.31;10290555;28;20137;-53
2023/07/20 10:44:07;;;;;;;6.22;2.60;;;;;;;32.05;35.52;97129.06;10283980;28;20168;-53
2023/07/20 10:49:08;;;;;;;5.57;2.53;;;;;;;32.18;38.04;97112.59;10284768;28;20105;-54
2023/07/20 10:54:16;;;;;;;7.72;2.65;;;;;;;32.52;36.29;97128.00;10284684;28;20124;-53
2023/07/20 10:59:19;;;;;;;6.63;2.72;;;;;;;32.80;37.28;97120.69;10290014;28;20171;-53
2023/07/20 11:04:19;;;;;;;5.07;2.58;;;;;;;32.85;36.96;97116.53;10288442;28;20084;-54
2023/07/20 11:09:22;;;;;;;6.88;2.80;;;;;;;32.71;36.42;97089.41;10285211;28;20113;-53
2023/07/20 11:14:25;;;;;;;6.30;2.58;;;;;;;32.75;38.02;97071.97;10284965;28;20073;-52
2023/07/20 11:19:26;;;;;;;7.28;2.97;;;;;;;32.66;38.15;97060.31;10283632;28;20129;-53
2023/07/20 11:24:25;;;;;;;5.40;2.40;;;;;;;32.39;36.61;97058.59;10286443;28;20104;-53
2023/07/20 11:29:25;;;;;;;4.70;2.20;;;;;;;32.05;38.29;97058.44;10284567;28;20080;-52
2023/07/20 11:34:24;;;;;;;4.47;2.33;;;;;;;31.55;38.00;97022.19;10289573;28;20076;-52
2023/07/20 11:39:26;;;;;;;6.70;3.00;;;;;;;31.40;38.27;97032.53;10289177;28;20068;-53
2023/07/20 11:44:29;;;;;;;7.55;3.97;;;;;;;31.37;40.22;97027.50;10290305;28;20061;-53
2023/07/20 11:49:28;;;;;;;5.28;3.08;;;;;;;31.51;39.40;97018.97;10289983;28;20061;-53
2023/07/20 11:54:27;;;;;;;6.72;3.05;;;;;;;31.70;39.60;97014.47;10281630;28;20108;-52
2023/07/20 11:59:26;;;;;;;7.55;2.63;;;;;;;31.71;39.68;97005.41;10285793;28;20058;-53
2023/07/20 12:04:25;;;;;;;6.00;3.25;;;;;;;31.39;40.04;96963.84;10288911;28;20037;-53
2023/07/20 12:09:24;;;;;;;6.68;2.92;;;;;;;31.88;40.59;96991.19;10288777;28;20065;-53
2023/07/20 12:14:25;;;;;;;6.97;3.28;;;;;;;32.36;38.72;96992.59;10285879;28;20041;-53
2023/07/20 12:19:25;;;;;;;10.38;3.42;;;;;;;32.19;38.07;96975.50;10288899;28;20057;-52
2023/07/20 12:24:24;;;;;;;7.22;3.75;;;;;;;32.46;37.61;96988.94;10284776;28;20114;-52
2023/07/20 12:29:24;;;;;;;6.50;3.35;;;;;;;31.96;37.53;96958.19;10285356;28;20066;-52
2023/07/20 12:34:23;;;;;;;7.03;3.88;;;;;;;32.14;37.37;96982.38;10284267;28;20110;-53
2023/07/20 12:39:22;;;;;;;11.90;4.28;;;;;;;32.48;37.56;96977.03;10285404;28;20186;-52
2023/07/20 12:44:21;;;;;;;6.82;3.88;;;;;;;32.84;36.76;96979.66;10284500;28;20033;-53
2023/07/20 12:49:20;;;;;;;9.63;3.88;;;;;;;32.85;36.88;96978.63;10283646;28;20018;-53
2023/07/20 12:54:18;;;;;;;7.88;3.40;;;;;;;33.26;35.47;96974.31;10278729;28;20037;-52
2023/07/20 12:59:18;;;;;;;6.50;3.33;;;;;;;33.73;34.20;96967.53;10285690;28;21309;-52
2023/07/20 13:04:16;;;;;;;8.45;3.20;;;;;;;34.04;34.16;96961.50;10280720;28;20073;-52
2023/07/20 13:09:15;;;;;;;7.47;2.92;;;;;;;34.02;32.98;96971.59;10284306;28;20018;-52
2023/07/20 13:14:14;;;;;;;9.07;3.70;;;;;;;33.77;34.04;96962.66;10283822;28;20045;-52
2023/07/20 13:19:13;;;;;;;6.50;3.88;;;;;;;33.64;33.06;96966.69;10282556;28;20029;-52
2023/07/20 13:24:12;;;;;;;6.88;3.25;;;;;;;33.29;32.83;96964.22;10283408;28;20028;-52
2023/07/20 13:29:11;;;;;;;8.50;3.08;;;;;;;33.26;33.20;96954.66;10282215;28;20065;-52
2023/07/20 13:34:10;;;;;;;7.40;3.95;;;;;;;33.23;34.29;96965.72;10282462;28;20061;-52
2023/07/20 13:39:09;;;;;;;5.28;2.90;;;;;;;32.80;37.03;96973.75;10283344;28;20048;-52
2023/07/20 13:44:08;;;;;;;7.05;3.05;;;;;;;32.81;37.78;96970.06;10283473;28;20499;-52
2023/07/20 13:49:07;;;;;;;16.70;4.22;;;;;;;32.32;39.70;96963.50;10284354;28;20492;-53
2023/07/20 13:54:06;;;;;;;8.90;2.88;;;;;;;32.21;40.36;96957.41;10282845;28;20073;-52
2023/07/20 13:59:05;;;;;;;7.30;3.25;;;;;;;32.21;40.78;96978.88;10283393;28;20025;-52
2023/07/20 14:04:04;;;;;;;9.45;2.95;;;;;;;31.61;41.21;96988.56;10282866;28;20026;-52
2023/07/20 14:09:03;;;;;;;13.55;4.22;;;;;;;31.48;42.06;96970.97;10285184;28;20065;-53
2023/07/20 14:14:02;;;;;;;23.42;5.25;;;;;;;31.63;42.21;96989.25;10290796;28;20145;-53
2023/07/20 14:19:01;;;;;;;6.82;3.42;;;;;;;31.52;41.21;96990.31;10289914;28;20395;-53
2023/07/20 14:24:00;;;;;;;7.63;3.28;;;;;;;31.34;42.02;96992.94;10288976;28;20072;-52
2023/07/20 14:28:59;;;;;;;6.20;3.17;;;;;;;30.64;43.62;96996.06;10289617;28;20119;-53
2023/07/20 14:33:58;;;;;;;7.47;3.13;;;;;;;30.85;43.23;97003.03;10288470;28;20064;-52
2023/07/20 14:38:57;;;;;;;8.88;3.53;;;;;;;30.68;43.50;97018.88;10303939;28;20036;-53
2023/07/20 14:43:56;;;;;;;6.32;3.53;;;;;;;30.52;43.48;97013.28;10290220;28;20116;-53
2023/07/20 14:48:55;;;;;;;11.55;3.53;;;;;;;30.35;44.58;97006.78;10292339;28;20065;-52
2023/07/20 14:53:54;;;;;;;8.30;3.50;;;;;;;30.30;44.96;97012.59;10288650;28;20530;-53
2023/07/20 14:58:53;;;;;;;8.10;4.07;;;;;;;30.53;44.48;97015.78;10284856;28;20030;-52
2023/07/20 15:03:53;;;;;;;10.80;3.95;;;;;;;30.43;45.36;97017.66;10291354;28;20069;-50
2023/07/20 15:08:52;;;;;;;8.90;3.38;;;;;;;30.62;45.06;97019.44;10289723;28;20068;-52
2023/07/20 15:13:51;;;;;;;9.20;3.90;;;;;;;30.45;44.94;97028.25;10291024;28;20072;-52
2023/07/20 15:18:50;;;;;;;7.10;3.70;;;;;;;30.54;44.63;97038.91;10290701;28;20096;-53
2023/07/20 15:23:49;;;;;;;8.18;3.58;;;;;;;30.13;43.89;97051.59;10291018;28;20132;-54
2023/07/20 15:28:48;;;;;;;9.00;4.40;;;;;;;30.16;44.59;97047.78;10286550;28;20588;-53
2023/07/20 15:33:47;;;;;;;6.00;3.65;;;;;;;29.84;44.59;97048.94;10286274;28;20056;-54
2023/07/20 15:38:46;;;;;;;10.63;3.92;;;;;;;29.70;44.77;97051.97;10288634;28;20488;-52
2023/07/20 15:43:46;;;;;;;7.15;4.05;;;;;;;29.57;44.81;97065.59;10290963;28;20037;-53
2023/07/20 15:48:46;;;;;;;4.88;3.28;;;;;;;29.62;44.10;97057.16;10291262;28;20108;-53
2023/07/20 15:53:45;;;;;;;4.38;2.72;;;;;;;29.54;43.25;97068.56;10290387;28;20496;-51
2023/07/20 15:58:44;;;;;;;4.88;2.90;;;;;;;29.68;42.45;97070.00;10290207;28;20038;-52
2023/07/20 16:03:43;;;;;;;6.65;3.08;;;;;;;29.48;42.07;97082.44;10288137;28;20567;-53
2023/07/20 16:08:43;;;;;;;6.25;2.67;;;;;;;29.46;42.43;97082.59;10289709;28;20044;-53
2023/07/20 16:13:44;;;;;;;5.85;3.05;;;;;;;29.51;41.76;97087.53;10287821;28;20125;-53
2023/07/20 16:18:43;;;;;;;6.18;2.97;;;;;;;29.64;41.60;97087.28;10284145;28;20069;-54
2023/07/20 16:23:42;;;;;;;9.02;4.10;;;;;;;29.82;41.79;97101.69;10276652;28;20121;-53
2023/07/20 16:28:41;;;;;;;7.13;2.88;;;;;;;29.73;41.13;97112.38;10286893;28;20038;-54
2023/07/20 16:33:41;;;;;;;5.10;2.45;;;;;;;29.84;40.64;97110.44;10281648;28;20133;-53
2023/07/20 16:38:41;;;;;;;7.15;2.80;;;;;;;29.88;41.11;97121.69;10281729;28;20088;-53
2023/07/20 16:43:40;;;;;;;5.22;2.88;;;;;;;29.70;40.72;97103.63;10279096;28;20117;-52
2023/07/20 16:48:39;;;;;;;6.60;3.35;;;;;;;29.82;40.71;97127.59;10276812;28;20129;-52
2023/07/20 16:53:38;;;;;;;5.32;2.78;;;;;;;29.66;41.42;97131.63;10278103;28;20121;-54
2023/07/20 16:58:38;;;;;;;8.25;3.33;;;;;;;29.65;41.50;97137.13;10277008;28;20129;-54
2023/07/20 17:03:36;;;;;;;8.00;3.35;;;;;;;29.59;41.32;97146.50;10281953;28;20129;-53
2023/07/20 17:08:35;;;;;;;5.05;2.97;;;;;;;29.34;41.25;97144.31;10278892;28;20048;-53
2023/07/20 17:13:34;;;;;;;7.93;3.55;;;;;;;29.06;40.67;97152.88;10279340;28;20030;-53
2023/07/20 17:18:33;;;;;;;8.73;4.60;;;;;;;28.94;40.73;97156.56;10282058;28;20037;-51
2023/07/20 17:23:32;;;;;;;7.95;4.25;;;;;;;28.58;41.32;97158.69;10279719;28;20392;-52
2023/07/20 17:28:31;;;;;;;7.97;3.60;;;;;;;28.47;41.33;97164.06;10281272;28;20025;-54
2023/07/20 17:33:30;;;;;;;6.82;3.22;;;;;;;28.23;41.65;97159.78;10283539;28;20044;-53
2023/07/20 17:38:29;;;;;;;7.90;3.45;;;;;;;28.23;41.89;97167.78;10294558;28;20559;-53
2023/07/20 17:43:28;;;;;;;4.63;3.08;;;;;;;27.89;42.04;97166.16;10282897;28;20657;-52
2023/07/20 17:48:27;;;;;;;7.75;3.63;;;;;;;27.95;42.20;97165.66;10281254;28;20034;-53
2023/07/20 17:53:26;;;;;;;5.20;3.05;;;;;;;27.86;42.18;97169.91;10271623;28;20032;-53
2023/07/20 17:58:25;;;;;;;7.47;3.10;;;;;;;27.80;42.47;97181.94;10281706;28;20125;-52
2023/07/20 18:03:24;;;;;;;6.57;3.17;;;;;;;27.70;42.50;97183.63;10282884;28;20022;-51
2023/07/20 18:08:25;;;;;;;8.63;4.20;;;;;;;27.65;45.39;97185.81;10279746;28;20112;-52
2023/07/20 18:13:24;;;;;;;8.25;4.18;;;;;;;27.35;47.13;97186.38;10282116;28;20122;-52
2023/07/20 18:18:23;;;;;;;8.05;4.13;;;;;;;27.06;48.45;97200.16;10282254;28;20065;-53
2023/07/20 18:23:22;;;;;;;9.43;3.65;;;;;;;26.81;49.35;97205.63;10277287;28;20034;-52
2023/07/20 18:28:21;;;;;;;8.15;3.78;;;;;;;26.59;49.77;97212.56;10279914;28;20034;-51
2023/07/20 18:33:20;;;;;;;7.43;4.10;;;;;;;26.40;49.66;97207.75;10277601;28;20104;-53
2023/07/20 18:38:18;;;;;;;7.05;3.90;;;;;;;26.22;50.21;97214.44;10276588;28;20037;-51
2023/07/20 18:43:17;;;;;;;9.95;4.10;;;;;;;26.10;50.91;97222.31;10279372;28;20112;-53
2023/07/20 18:48:17;;;;;;;7.97;4.13;;;;;;;25.98;51.41;97228.53;10277890;28;20100;-52
2023/07/20 18:53:16;;;;;;;10.18;3.83;;;;;;;25.85;52.14;97238.31;10280029;28;20117;-53
2023/07/20 18:58:15;;;;;;;7.75;4.13;;;;;;;25.65;52.53;97247.72;10287680;28;20105;-51
2023/07/20 19:03:13;;;;;;;11.60;4.40;;;;;;;25.50;52.90;97249.59;10285269;28;20351;-53
2023/07/20 19:08:13;;;;;;;9.23;4.25;;;;;;;25.37;53.08;97259.38;10283155;28;20034;-52
2023/07/20 19:13:13;;;;;;;6.88;4.35;;;;;;;25.20;53.73;97263.19;10285801;28;20373;-52
2023/07/20 19:18:12;;;;;;;6.35;4.20;;;;;;;25.04;54.69;97284.63;10283814;28;20121;-52
2023/07/20 19:23:11;;;;;;;6.03;4.43;;;;;;;24.79;56.08;97288.88;10285178;28;20137;-52
2023/07/20 19:28:10;;;;;;;9.15;4.72;;;;;;;24.46;57.60;97290.13;10285540;28;20068;-50
2023/07/20 19:33:09;;;;;;;7.60;4.70;;;;;;;24.33;57.92;97294.50;10284109;28;20052;-51
2023/07/20 19:38:10;;;;;;;9.90;4.70;;;;;;;24.05;57.95;97253.84;10284709;28;20851;-51
2023/07/20 19:43:13;;;;;;;9.05;5.00;;;;;;;24.11;58.29;97268.50;10281996;28;20121;-52
2023/07/20 19:48:12;;;;;;;8.63;5.03;;;;;;;24.21;58.80;97312.03;10282351;28;20100;-52
2023/07/20 19:53:10;;;;;;;10.40;5.85;;;;;;;24.03;60.19;97324.66;10288365;28;20419;-51
2023/07/20 19:58:09;;;;;;;9.40;5.95;;;;;;;23.87;61.24;97323.03;10283300;28;20100;-49
2023/07/20 20:03:09;;;;;;;8.80;5.40;;;;;;;23.77;61.41;97320.09;10283585;28;20042;-51
2023/07/20 20:08:08;;;;;;;9.80;6.13;;;;;;;23.73;62.24;97329.19;10280954;28;20125;-51
2023/07/20 20:13:07;;;;;;;8.95;5.10;;;;;;;23.66;62.87;97330.50;10284519;28;20124;-51
2023/07/20 20:18:08;;;;;;;10.63;6.68;;;;;;;23.50;64.30;97336.72;10281539;28;20127;-50
2023/07/20 20:23:20;;;;;;;12.35;6.40;;;;;;;23.34;64.62;97336.75;10283062;28;20125;-51
2023/07/20 20:28:19;;;;;;;8.25;6.10;;;;;;;23.25;65.29;97339.09;10283791;28;20077;-49
2023/07/20 20:33:19;;;;;;;9.02;5.97;;;;;;;23.18;65.56;97338.59;10278878;28;20136;-51
2023/07/20 20:38:19;;;;;;;10.88;5.65;;;;;;;22.98;66.15;97318.59;10282782;28;20096;-49
2023/07/20 20:43:20;;;;;;;9.95;6.28;;;;;;;23.02;66.67;97330.69;10281420;28;20113;-49
2023/07/20 20:48:18;;;;;;;10.45;5.82;;;;;;;22.78;68.32;97307.34;10280658;28;20476;-51
2023/07/20 20:53:18;;;;;;;9.98;6.20;;;;;;;22.74;68.45;97315.56;10282209;28;20507;-48
2023/07/20 20:58:17;;;;;;;12.63;6.78;;;;;;;22.68;69.09;97337.91;10280905;28;20088;-49
2023/07/20 21:03:16;;;;;;;11.30;6.97;;;;;;;22.65;69.28;97335.44;10282384;28;20034;-51
2023/07/20 21:08:15;;;;;;;12.18;7.10;;;;;;;22.57;69.70;97335.84;10278827;28;20041;-51
2023/07/20 21:13:14;;;;;;;12.82;6.15;;;;;;;22.46;72.19;97337.38;10281983;28;20495;-51
2023/07/20 21:18:13;;;;;;;9.32;6.13;;;;;;;22.33;73.83;97351.28;10279527;28;20630;-49
2023/07/20 21:23:13;;;;;;;7.72;5.55;;;;;;;22.17;74.72;97353.06;10281275;28;20132;-48
2023/07/20 21:28:11;;;;;;;10.60;5.65;;;;;;;21.93;75.84;97356.06;10280356;28;20109;-54
2023/07/20 21:33:13;;;;;;;10.38;6.13;;;;;;;21.92;75.89;97362.28;10279590;28;20069;-51
2023/07/20 21:38:12;;;;;;;11.00;6.30;;;;;;;21.86;75.50;97375.81;10280619;28;20498;-54
2023/07/20 21:43:11;;;;;;;9.15;6.07;;;;;;;21.88;75.78;97376.59;10279641;28;20486;-52
2023/07/20 21:48:11;;;;;;;9.45;6.03;;;;;;;21.71;75.78;97371.31;10279686;28;20045;-52
2023/07/20 21:53:10;;;;;;;7.88;5.45;;;;;;;21.62;76.46;97385.03;10279374;28;20069;-50
2023/07/20 21:58:12;;;;;;;12.32;6.47;;;;;;;21.37;77.49;97380.13;10282101;28;20068;-51
2023/07/20 22:03:11;;;;;;;10.45;6.97;;;;;;;21.16;78.17;97382.88;10280830;28;20137;-53
2023/07/20 22:08:12;;;;;;;9.90;6.18;;;;;;;21.16;78.08;97395.22;10280379;28;20064;-52
2023/07/20 22:13:11;;;;;;;9.00;6.25;;;;;;;21.08;78.84;97395.59;10277601;28;20567;-51
2023/07/20 22:18:11;;;;;;;9.23;6.45;;;;;;;21.04;78.77;97391.41;10276715;28;20499;-51
2023/07/20 22:23:09;;;;;;;9.85;6.47;;;;;;;21.09;78.52;97399.94;10275529;28;20128;-51
2023/07/20 22:28:08;;;;;;;12.80;6.38;;;;;;;21.05;78.65;97401.84;10280638;28;20121;-51
2023/07/20 22:33:07;;;;;;;10.93;7.10;;;;;;;20.99;78.94;97409.25;10287084;28;20046;-52
2023/07/20 22:38:06;;;;;;;11.13;6.93;;;;;;;20.99;79.21;97410.09;10286034;28;20026;-51
2023/07/20 22:43:05;;;;;;;13.75;7.53;;;;;;;20.96;80.60;97406.72;10287787;28;20140;-49
2023/07/20 22:48:04;;;;;;;12.73;7.57;;;;;;;20.90;80.93;97397.34;10286647;28;20195;-53
2023/07/20 22:53:03;;;;;;;11.93;8.02;;;;;;;20.84;81.15;97392.34;10285839;28;20535;-51
2023/07/20 22:58:02;;;;;;;11.38;7.95;;;;;;;20.83;81.17;97398.56;10285800;28;20042;-53